Time;durP1;ratioP1;P1;durP2;ratioP2;P2;SDS_P1;SDS_P2;PMS_P1;PMS_P2;Temp;Humidity;BMP_temperature;BMP_pressure;BME280_temperature;BME280_humidity;BME280_pressure;Samples;Min_cycle;Max_cycle;Signal;HPM_P1;HPM_P2
2023/08/09 04:10:08;;;;;;;6.35;3.60;;;;;;;15.18;88.15;100722.03;5605707;31;112119;-62
2023/08/09 04:13:11;;;;;;;9.25;3.37;;;;;;;15.18;88.15;100722.03;5584113;31;33347;-63
2023/08/09 04:16:13;;;;;;;9.95;3.83;;;;;;;14.64;82.12;100730.97;5564724;32;32106;-63
2023/08/09 04:19:16;;;;;;;9.48;2.95;;;;;;;14.73;94.54;100726.47;5564308;32;34280;-63
2023/08/09 04:22:18;;;;;;;5.20;2.85;;;;;;;14.79;84.79;100734.16;5564298;32;33584;-63
2023/08/09 04:25:21;;;;;;;8.55;3.05;;;;;;;14.91;81.86;100744.47;5564322;32;33632;-63
2023/08/09 04:28:24;;;;;;;5.30;3.20;;;;;;;14.94;82.53;100738.47;5564235;32;33738;-63
2023/08/09 04:31:26;;;;;;;6.18;2.92;;;;;;;15.06;96.16;100737.16;5564264;32;33807;-63
2023/08/09 04:34:29;;;;;;;4.87;2.70;;;;;;;15.23;100.00;100740.03;5564422;32;33757;-61
2023/08/09 04:37:31;;;;;;;8.27;3.30;;;;;;;15.35;87.60;100731.44;5564309;32;33617;-61
2023/08/09 04:40:36;;;;;;;3.80;2.50;;;;;;;15.38;82.18;100726.22;5564153;32;33944;-61
2023/08/09 04:43:43;;;;;;;6.55;3.00;;;;;;;15.42;83.12;100723.69;5564114;32;34558;-61
2023/08/09 04:46:45;;;;;;;9.82;3.17;;;;;;;15.39;80.70;100719.69;5564119;32;33316;-61
2023/08/09 04:49:48;;;;;;;7.47;3.42;;;;;;;15.46;80.73;100724.69;5563880;32;34335;-61
2023/08/09 04:52:50;;;;;;;5.78;3.40;;;;;;;15.50;90.32;100728.41;5564167;32;34373;-61
2023/08/09 04:55:53;;;;;;;4.78;3.20;;;;;;;15.55;79.62;100730.19;5563993;32;34332;-61
2023/08/09 04:58:55;;;;;;;9.30;3.45;;;;;;;15.61;100.00;100735.16;5563983;32;33731;-61
2023/08/09 05:01:57;;;;;;;6.72;3.92;;;;;;;15.60;85.73;100738.97;5575458;31;34375;-61
2023/08/09 05:04:59;;;;;;;6.50;3.92;;;;;;;15.60;92.79;100736.28;5583295;32;34332;-61
2023/08/09 05:08:02;;;;;;;6.43;3.60;;;;;;;15.72;100.00;100739.25;5580658;32;34374;-61
2023/08/09 05:11:05;;;;;;;5.62;3.80;;;;;;;15.83;84.26;100730.94;5583042;32;35064;-61
2023/08/09 05:14:07;;;;;;;8.18;4.37;;;;;;;15.88;96.42;100731.59;5583135;31;34193;-61
2023/08/09 05:17:09;;;;;;;6.60;4.03;;;;;;;15.92;83.64;100732.56;5567466;32;33594;-61
2023/08/09 05:20:12;;;;;;;8.13;4.15;;;;;;;16.09;82.31;100734.59;5554469;32;34273;-61
2023/08/09 05:23:15;;;;;;;8.25;4.12;;;;;;;16.19;82.32;100733.53;5550789;32;33711;-61
2023/08/09 05:26:18;;;;;;;10.95;4.30;;;;;;;16.26;82.17;100743.91;5550508;32;33746;-61
2023/08/09 05:29:20;;;;;;;7.50;4.28;;;;;;;16.40;80.98;100739.25;5550626;32;34264;-61
2023/08/09 05:32:23;;;;;;;6.95;4.37;;;;;;;16.45;80.53;100739.09;5550473;32;33718;-61
2023/08/09 05:35:29;;;;;;;8.68;4.68;;;;;;;16.45;80.13;100747.22;5550154;32;33746;-61
2023/08/09 05:38:31;;;;;;;9.55;4.65;;;;;;;16.58;78.48;100740.12;5550125;32;33663;-61
2023/08/09 05:41:33;;;;;;;7.47;4.53;;;;;;;16.68;79.36;100740.62;5550578;32;34174;-61
2023/08/09 05:44:36;;;;;;;10.82;4.93;;;;;;;16.62;79.51;100732.97;5550278;32;33626;-60
2023/08/09 05:47:38;;;;;;;9.93;5.82;;;;;;;16.80;79.24;100734.66;5549713;32;34582;-60
2023/08/09 05:50:41;;;;;;;9.40;5.20;;;;;;;16.97;77.31;100731.22;5550376;32;33741;-60
2023/08/09 05:53:43;;;;;;;9.38;5.80;;;;;;;17.04;79.05;100733.47;5550342;32;33778;-60
2023/08/09 05:56:45;;;;;;;8.48;4.85;;;;;;;17.22;80.51;100739.72;5550379;32;33552;-61
2023/08/09 05:59:48;;;;;;;13.35;7.55;;;;;;;17.32;79.50;100734.03;5550031;32;33681;-61
2023/08/09 06:02:50;;;;;;;13.25;5.18;;;;;;;17.50;78.04;100738.31;5550321;32;33718;-60
2023/08/09 06:05:53;;;;;;;11.52;4.55;;;;;;;17.62;76.95;100735.00;5552550;32;32029;-60
2023/08/09 06:08:57;;;;;;;6.37;4.28;;;;;;;17.74;76.18;100737.06;5568673;32;33886;-61
2023/08/09 06:12:19;;;;;;;6.35;4.40;;;;;;;17.89;88.63;100733.91;5569427;32;33594;-60
2023/08/09 06:15:22;;;;;;;9.73;4.90;;;;;;;18.12;88.56;100722.88;5569166;32;33580;-60
2023/08/09 06:18:30;;;;;;;11.98;5.82;;;;;;;18.36;81.17;100723.09;5569473;32;34387;-61
2023/08/09 06:21:34;;;;;;;16.27;6.90;;;;;;;18.41;76.94;100724.84;5569669;32;34301;-60
2023/08/09 06:24:38;;;;;;;17.17;6.93;;;;;;;18.72;83.81;100721.91;5568486;32;33609;-61
2023/08/09 06:27:44;;;;;;;16.77;6.45;;;;;;;18.72;77.17;100730.03;5568986;32;33699;-61
2023/08/09 06:30:50;;;;;;;17.65;7.22;;;;;;;18.92;81.42;100732.00;5568376;32;34039;-60
2023/08/09 06:33:55;;;;;;;13.20;6.57;;;;;;;18.99;81.74;100723.34;5568104;32;34388;-60
2023/08/09 06:37:03;;;;;;;10.50;6.12;;;;;;;19.07;83.35;100730.62;5569246;32;34359;-60
2023/08/09 06:40:16;;;;;;;17.58;6.93;;;;;;;19.19;83.13;100725.31;5568460;32;34359;-61
2023/08/09 06:43:22;;;;;;;25.08;8.15;;;;;;;19.36;81.55;100724.38;5567484;32;33686;-61
2023/08/09 06:46:30;;;;;;;23.33;7.22;;;;;;;19.25;75.58;100720.47;5568997;32;34385;-61
2023/08/09 06:49:35;;;;;;;11.77;6.53;;;;;;;19.27;71.16;100731.00;5568899;32;34286;-60
2023/08/09 06:52:42;;;;;;;16.92;6.37;;;;;;;19.23;73.00;100728.94;5569038;32;33615;-63
2023/08/09 06:55:56;;;;;;;15.40;6.90;;;;;;;19.33;75.64;100741.34;5568741;32;33865;-64
2023/08/09 06:59:01;;;;;;;28.62;5.85;;;;;;;19.43;77.29;100734.72;5568861;32;33578;-64
2023/08/09 07:02:08;;;;;;;8.50;4.20;;;;;;;19.51;77.05;100736.59;5568173;32;33527;-64
2023/08/09 07:05:18;;;;;;;9.20;3.55;;;;;;;19.75;72.70;100732.44;5568139;32;33659;-64
2023/08/09 07:08:33;;;;;;;7.30;3.42;;;;;;;19.94;82.64;100736.28;5568235;32;34391;-63
2023/08/09 07:11:39;;;;;;;9.38;4.00;;;;;;;20.12;79.16;100731.44;5568571;32;33789;-64
2023/08/09 07:14:44;;;;;;;12.55;4.00;;;;;;;19.99;71.89;100724.38;5562788;31;34342;-64
2023/08/09 07:17:50;;;;;;;7.28;3.22;;;;;;;19.97;71.27;100723.09;5568230;32;33497;-64
2023/08/09 07:20:57;;;;;;;6.65;3.20;;;;;;;20.12;75.48;100728.72;5568541;32;33671;-64
2023/08/09 07:24:01;;;;;;;7.97;3.37;;;;;;;20.09;70.02;100726.66;5568355;32;33388;-64
2023/08/09 07:27:05;;;;;;;6.30;3.10;;;;;;;20.15;68.08;100722.59;5568852;32;33848;-64
2023/08/09 07:30:12;;;;;;;;;;;;;;;20.18;72.22;100724.66;5568239;32;33685;-64
2023/08/09 07:33:17;;;;;;;;;;;;;;;20.23;73.06;100720.12;5568867;32;34601;-63
2023/08/09 07:36:22;;;;;;;10.65;3.70;;;;;;;20.38;79.69;100716.75;5567963;32;33996;-64
2023/08/09 07:39:28;;;;;;;6.35;3.75;;;;;;;20.40;72.15;100718.03;5567415;32;34336;-64
2023/08/09 07:42:32;;;;;;;7.60;3.45;;;;;;;20.54;70.19;100719.66;5567439;32;33615;-64
2023/08/09 07:45:36;;;;;;;6.57;3.15;;;;;;;20.71;77.12;100718.63;5568439;32;34307;-64
2023/08/09 07:48:40;;;;;;;6.78;2.70;;;;;;;20.71;70.61;100715.91;5568524;32;34371;-64
2023/08/09 07:51:44;;;;;;;7.53;3.03;;;;;;;20.65;72.46;100716.13;5568489;32;33590;-64
2023/08/09 07:54:47;;;;;;;7.87;2.83;;;;;;;20.85;74.51;100722.59;5568481;32;33226;-64
2023/08/09 07:57:50;;;;;;;5.68;2.22;;;;;;;21.05;67.75;100709.97;5567215;32;34303;-64
2023/08/09 08:00:53;;;;;;;5.03;2.60;;;;;;;20.97;63.84;100715.56;5568458;32;33683;-64
2023/08/09 08:03:55;;;;;;;6.40;2.87;;;;;;;21.08;72.64;100717.47;5568092;32;33643;-60
2023/08/09 08:06:58;;;;;;;7.47;2.87;;;;;;;21.00;67.75;100714.87;5568090;32;33651;-61
2023/08/09 08:10:01;;;;;;;11.12;2.60;;;;;;;21.04;71.34;100713.06;5554464;32;34158;-61
2023/08/09 08:13:04;;;;;;;7.30;2.42;;;;;;;20.97;65.69;100710.91;5553379;32;34263;-59
2023/08/09 08:16:07;;;;;;;6.60;3.03;;;;;;;20.86;63.94;100713.31;5567368;32;33517;-59
2023/08/09 08:19:10;;;;;;;6.85;2.87;;;;;;;20.78;63.20;100714.22;5567979;32;34340;-60
2023/08/09 08:22:14;;;;;;;4.85;2.50;;;;;;;20.84;71.55;100720.22;5567807;32;33798;-59
2023/08/09 08:25:19;;;;;;;5.60;2.67;;;;;;;20.83;68.26;100724.09;5568116;32;33582;-59
2023/08/09 08:28:23;;;;;;;6.85;2.35;;;;;;;20.98;71.80;100719.88;5567796;32;33774;-59
2023/08/09 08:31:26;;;;;;;12.82;2.95;;;;;;;21.00;73.06;100715.69;5567792;32;33702;-60
2023/08/09 08:34:31;;;;;;;7.22;2.70;;;;;;;21.12;78.18;100712.94;5567652;32;33426;-59
2023/08/09 08:37:34;;;;;;;7.12;2.47;;;;;;;21.27;74.63;100719.59;5567798;32;33600;-59
2023/08/09 08:40:38;;;;;;;7.22;2.50;;;;;;;21.17;70.39;100714.63;5567541;32;33640;-59
2023/08/09 08:43:44;;;;;;;4.53;2.72;;;;;;;21.10;73.94;100720.66;5567751;32;33560;-59
2023/08/09 08:46:48;;;;;;;10.80;3.47;;;;;;;21.10;74.02;100720.66;5567633;32;33536;-59
2023/08/09 08:49:52;;;;;;;18.50;3.80;;;;;;;21.09;76.74;100716.34;5567230;32;33954;-59
2023/08/09 08:52:55;;;;;;;5.50;2.03;;;;;;;21.16;70.80;100720.41;5566973;32;33569;-59
2023/08/09 08:55:57;;;;;;;5.32;2.20;;;;;;;21.35;70.88;100712.47;5569055;32;33782;-60
2023/08/09 08:59:00;;;;;;;6.93;2.45;;;;;;;21.39;68.92;100712.56;5569982;32;33564;-60
2023/08/09 09:02:02;;;;;;;6.50;2.33;;;;;;;21.43;65.74;100713.47;5565935;32;33394;-60
2023/08/09 09:05:09;;;;;;;3.95;2.20;;;;;;;21.42;63.42;100707.19;5569679;32;34259;-59
2023/08/09 09:08:13;;;;;;;7.75;2.42;;;;;;;21.52;65.84;100714.09;5569594;32;33733;-60
2023/08/09 09:11:21;;;;;;;4.22;2.50;;;;;;;21.52;65.05;100704.03;5551162;32;33536;-59
2023/08/09 09:14:23;;;;;;;8.45;2.37;;;;;;;21.73;71.83;100700.28;5550388;32;34352;-59
2023/08/09 09:17:26;;;;;;;6.90;3.22;;;;;;;21.74;74.40;100693.69;5550405;32;34366;-59
2023/08/09 09:20:33;;;;;;;4.78;2.70;;;;;;;21.53;62.64;100689.22;5550250;32;33587;-60
2023/08/09 09:23:37;;;;;;;7.53;2.40;;;;;;;21.49;65.74;100704.72;5550513;32;34455;-60
2023/08/09 09:26:39;;;;;;;4.43;2.40;;;;;;;21.43;64.06;100697.91;5549866;32;33732;-60
2023/08/09 09:29:41;;;;;;;5.18;2.37;;;;;;;21.48;67.60;100699.59;5549943;32;34543;-59
2023/08/09 09:32:56;;;;;;;5.68;2.05;;;;;;;21.49;71.14;100695.72;5549947;32;34354;-59
2023/08/09 09:35:59;;;;;;;4.62;2.50;;;;;;;21.48;67.71;100705.81;5549010;32;33768;-60
2023/08/09 09:39:20;;;;;;;3.87;2.08;;;;;;;21.43;63.03;100697.91;5549830;32;34221;-59
2023/08/09 09:42:33;;;;;;;3.87;2.30;;;;;;;21.44;65.17;100702.22;5549043;32;33590;-60
2023/08/09 09:45:36;;;;;;;2.53;2.00;;;;;;;21.55;68.18;100691.59;5569591;32;33059;-60
2023/08/09 09:48:40;;;;;;;3.85;1.75;;;;;;;21.51;66.94;100691.50;5569573;32;34452;-59
2023/08/09 09:51:42;;;;;;;3.90;1.90;;;;;;;21.53;63.33;100686.50;5569742;32;34461;-59
2023/08/09 09:54:46;;;;;;;5.18;1.98;;;;;;;21.58;62.53;100688.97;5569172;32;34454;-59
2023/08/09 09:57:49;;;;;;;6.70;2.15;;;;;;;21.61;60.96;100687.47;5569477;32;33637;-60
2023/08/09 10:00:54;;;;;;;3.00;1.80;;;;;;;21.72;64.87;100685.88;5568676;32;33645;-59
2023/08/09 10:04:06;;;;;;;2.70;1.73;;;;;;;21.81;66.58;100682.97;5569296;32;34030;-59
2023/08/09 10:07:09;;;;;;;6.53;1.77;;;;;;;21.79;59.41;100686.06;5569424;32;33719;-59
2023/08/09 10:10:13;;;;;;;2.97;1.40;;;;;;;21.84;59.94;100676.81;5569173;32;33684;-60
2023/08/09 10:13:21;;;;;;;2.40;1.52;;;;;;;21.88;57.45;100676.91;5569281;32;33668;-60
2023/08/09 10:16:26;;;;;;;3.67;2.35;;;;;;;21.93;59.32;100672.00;5568898;32;33642;-60
2023/08/09 10:19:29;;;;;;;3.80;1.80;;;;;;;21.99;58.32;100672.53;5568798;32;33696;-60
2023/08/09 10:22:32;;;;;;;3.35;1.90;;;;;;;22.13;62.71;100663.91;5566004;32;34159;-63
2023/08/09 10:25:47;;;;;;;2.37;1.80;;;;;;;22.09;61.48;100673.97;5555866;32;33914;-63
2023/08/09 10:28:50;;;;;;;2.92;1.90;;;;;;;22.04;58.14;100664.88;5568596;32;33305;-64
2023/08/09 10:31:54;;;;;;;2.67;1.42;;;;;;;22.09;65.23;100666.56;5567424;32;33733;-63
2023/08/09 10:34:58;;;;;;;3.40;2.00;;;;;;;22.21;61.88;100665.69;5568837;32;34340;-64
2023/08/09 10:38:05;;;;;;;2.78;1.40;;;;;;;22.18;71.15;100661.72;5562030;31;33525;-64
2023/08/09 10:41:11;;;;;;;3.25;1.50;;;;;;;22.12;60.43;100662.31;5565825;32;34285;-64
2023/08/09 10:44:13;;;;;;;3.37;1.62;;;;;;;22.09;58.73;100650.19;5547501;32;34229;-64
2023/08/09 10:47:22;;;;;;;3.25;1.50;;;;;;;22.03;56.63;100657.81;5548681;32;34338;-63
2023/08/09 10:50:34;;;;;;;2.45;1.80;;;;;;;22.01;57.44;100659.31;5548087;32;33843;-64
2023/08/09 10:54:05;;;;;;;2.42;1.30;;;;;;;22.05;59.36;100658.28;5555183;32;33626;-63
2023/08/09 10:57:09;;;;;;;3.80;1.67;;;;;;;22.14;60.13;100662.75;5564951;32;33627;-63
2023/08/09 11:00:13;;;;;;;2.10;1.52;;;;;;;22.10;58.80;100657.22;5564717;32;33309;-63
2023/08/09 11:03:15;;;;;;;6.10;2.00;;;;;;;22.14;60.96;100657.31;5568903;32;33876;-63
2023/08/09 11:06:31;;;;;;;3.58;1.60;;;;;;;22.23;67.54;100661.47;5568512;32;33278;-64
2023/08/09 11:09:33;;;;;;;3.53;2.28;;;;;;;22.35;64.56;100665.25;5568509;32;33685;-64
2023/08/09 11:12:37;;;;;;;1.85;1.30;;;;;;;22.34;68.54;100664.47;5567422;32;33696;-63
2023/08/09 11:15:50;;;;;;;3.37;1.80;;;;;;;22.33;60.92;100665.62;5568567;32;34412;-64
2023/08/09 11:19:13;;;;;;;3.55;1.90;;;;;;;22.34;64.22;100663.69;5560551;32;33868;-64
2023/08/09 11:22:34;;;;;;;2.33;1.50;;;;;;;22.30;64.31;100652.69;5548322;32;34421;-64
2023/08/09 11:25:37;;;;;;;3.12;1.33;;;;;;;22.35;63.35;100652.41;5548862;32;33170;-64
2023/08/09 11:28:41;;;;;;;2.22;1.45;;;;;;;22.46;57.70;100644.47;5548843;32;33839;-64
2023/08/09 11:31:45;;;;;;;3.87;1.60;;;;;;;22.39;59.98;100644.31;5558210;32;33582;-64
2023/08/09 11:34:48;;;;;;;2.80;1.58;;;;;;;22.38;57.54;100648.16;5568458;32;34033;-62
2023/08/09 11:37:52;;;;;;;7.12;1.55;;;;;;;22.33;54.81;100651.19;5568398;32;33843;-62
2023/08/09 11:40:54;;;;;;;4.47;1.70;;;;;;;22.32;60.07;100644.13;5557021;32;34123;-62
2023/08/09 11:43:57;;;;;;;3.03;1.58;;;;;;;22.38;61.85;100651.69;5553704;32;34381;-61
2023/08/09 11:47:01;;;;;;;2.08;1.20;;;;;;;22.38;60.85;100646.22;5550552;32;32388;-62
2023/08/09 11:50:25;;;;;;;;;;;;;;;22.34;55.50;100644.56;5566503;32;33700;-61
2023/08/09 11:53:27;;;;;;;3.67;1.20;;;;;;;22.42;64.21;100646.34;5567806;32;33940;-61
2023/08/09 11:56:32;;;;;;;5.07;1.60;;;;;;;22.42;58.76;100649.06;5567566;32;34386;-62
2023/08/09 11:59:38;;;;;;;6.30;1.80;;;;;;;22.33;52.84;100643.78;5568458;32;33709;-61
2023/08/09 12:02:41;;;;;;;2.30;1.30;;;;;;;22.33;54.98;100649.25;5564996;32;34337;-61
2023/08/09 12:05:44;;;;;;;3.45;1.45;;;;;;;22.36;59.50;100645.81;5566521;32;34312;-61
2023/08/09 12:08:57;;;;;;;1.73;1.23;;;;;;;22.35;60.77;100641.50;5561323;32;34172;-61
2023/08/09 12:12:02;;;;;;;2.30;1.40;;;;;;;22.38;65.79;100646.22;5548183;32;33617;-61
2023/08/09 12:15:07;;;;;;;3.97;1.30;;;;;;;22.45;59.70;100645.59;5548074;32;34438;-61
2023/08/09 12:18:10;;;;;;;1.83;1.42;;;;;;;22.37;56.19;100644.66;5547909;32;33684;-61
2023/08/09 12:21:12;;;;;;;1.55;1.20;;;;;;;22.36;55.89;100643.06;5564373;32;33829;-61
2023/08/09 12:24:14;;;;;;;2.75;1.65;;;;;;;22.39;56.32;100642.38;5567125;32;33859;-61
2023/08/09 12:27:19;;;;;;;4.68;1.40;;;;;;;22.47;58.90;100648.78;5567276;32;33453;-61
2023/08/09 12:30:21;;;;;;;4.80;1.83;;;;;;;22.45;59.07;100648.34;5568866;32;33260;-61
2023/08/09 12:33:27;;;;;;;3.15;1.45;;;;;;;22.44;56.76;100644.03;5570159;32;33904;-61
2023/08/09 12:36:30;;;;;;;1.83;1.33;;;;;;;22.49;56.55;100650.03;5570226;32;34263;-61
2023/08/09 12:39:34;;;;;;;1.73;1.20;;;;;;;22.49;58.88;100647.28;5570489;32;34426;-61
2023/08/09 12:42:37;;;;;;;1.83;1.40;;;;;;;22.45;55.49;100651.88;5570324;32;33740;-61
2023/08/09 12:45:41;;;;;;;2.08;1.37;;;;;;;22.47;56.31;100649.56;5570243;32;33765;-61
2023/08/09 12:48:46;;;;;;;5.37;1.27;;;;;;;22.58;58.58;100644.34;5570221;32;34382;-61
2023/08/09 12:51:48;;;;;;;1.77;1.35;;;;;;;22.53;53.33;100639.19;5569859;32;34347;-62
2023/08/09 12:54:51;;;;;;;3.40;1.48;;;;;;;22.70;61.19;100635.25;5569752;32;34503;-61
2023/08/09 12:57:53;;;;;;;3.42;1.60;;;;;;;22.70;58.11;100635.25;5570393;32;33639;-61
2023/08/09 13:00:56;;;;;;;3.25;1.48;;;;;;;22.81;58.41;100632.75;5570020;32;33802;-61
2023/08/09 13:03:58;;;;;;;1.65;1.20;;;;;;;22.83;60.26;100631.25;5570062;32;33822;-62
2023/08/09 13:07:01;;;;;;;3.22;1.50;;;;;;;22.83;56.04;100631.25;5569735;32;34431;-61
2023/08/09 13:10:03;;;;;;;2.62;1.60;;;;;;;22.79;58.28;100626.87;5569511;32;35361;-62
2023/08/09 13:13:06;;;;;;;3.50;1.50;;;;;;;22.78;56.73;100626.09;5552976;32;34011;-61
2023/08/09 13:16:08;;;;;;;3.45;1.30;;;;;;;22.75;55.87;100619.41;5549632;32;33328;-62
2023/08/09 13:19:11;;;;;;;2.80;1.50;;;;;;;22.71;52.32;100609.50;5550463;32;34402;-62
2023/08/09 13:22:13;;;;;;;3.00;1.37;;;;;;;22.77;54.46;100612.78;5548843;32;33844;-62
2023/08/09 13:25:16;;;;;;;4.32;1.60;;;;;;;22.88;62.87;100609.13;5550319;32;33733;-61
2023/08/09 13:28:18;;;;;;;4.12;1.70;;;;;;;22.83;52.43;100608.62;5550332;32;33593;-61
2023/08/09 13:31:21;;;;;;;28.48;3.97;;;;;;;22.90;57.13;100611.50;5556808;32;33719;-62
2023/08/09 13:34:23;;;;;;;3.28;1.70;;;;;;;22.88;55.37;100611.88;5569561;32;33659;-61
2023/08/09 13:37:26;;;;;;;4.62;1.70;;;;;;;22.79;52.61;100610.47;5569436;32;34378;-62
2023/08/09 13:40:32;;;;;;;2.92;1.20;;;;;;;22.86;63.25;100608.69;5569191;32;34320;-61
2023/08/09 13:43:34;;;;;;;18.50;2.30;;;;;;;22.78;53.77;100604.22;5569249;32;33576;-61
2023/08/09 13:46:37;;;;;;;31.92;2.67;;;;;;;22.78;54.05;100614.34;5569318;32;33626;-62
2023/08/09 13:49:40;;;;;;;15.75;2.35;;;;;;;22.80;62.97;100606.59;5569778;32;33732;-62
2023/08/09 13:52:42;;;;;;;3.97;1.37;;;;;;;22.82;60.57;100604.31;5568793;32;33594;-62
2023/08/09 13:55:46;;;;;;;51.97;4.00;;;;;;;22.87;65.53;100599.31;5569579;32;33597;-61
2023/08/09 13:58:48;;;;;;;16.92;2.28;;;;;;;22.84;62.26;100599.25;5569133;32;33266;-61
2023/08/09 14:01:51;;;;;;;7.53;1.87;;;;;;;22.83;62.37;100605.88;5568801;32;33748;-61
2023/08/09 14:04:54;;;;;;;8.30;2.30;;;;;;;22.79;55.93;100602.28;5569489;32;34378;-61
2023/08/09 14:07:56;;;;;;;764.10;98.72;;;;;;;22.85;61.50;100607.13;5569326;32;33689;-61
2023/08/09 14:10:59;;;;;;;88.32;12.18;;;;;;;22.86;60.60;100596.97;5568957;32;33625;-60
2023/08/09 14:14:01;;;;;;;150.10;16.55;;;;;;;22.81;59.20;100598.03;5568855;32;33910;-60
2023/08/09 14:17:04;;;;;;;40.45;4.95;;;;;;;22.80;61.09;100582.00;5569258;32;34416;-60
2023/08/09 14:20:07;;;;;;;16.50;2.78;;;;;;;22.84;60.75;100572.72;5569135;32;34335;-60
2023/08/09 14:23:11;;;;;;;249.32;24.95;;;;;;;22.84;58.37;100572.72;5569188;32;33606;-60
